Abington, Connecticut
Current Conditions -  °F | °C
As of 2:52 AM on Friday 31 Oct 2014 (Local Time) from KIJD Reporting Station
Broken Clouds Broken Clouds  
Wind Chill: 36°   Ceiling: 5500
Heat Index: 36°   Visibility: 10mi
Dew Point: 33°   Wind: 0mph
Humidity: 89%   Direction: NA
Pressure: 30.02"   Gusts: NA
Location:  41.86°N, 72.01°W
Report Text: KIJD 310652Z AUTO 00000KT 10SM BKN055 02/01 A3002 RMK AO2 SLP165 T00220006
Loading
Personal Weather Stations






























Interactive Weather Map
Tropical Storm Tracking
New forecast layout! Learn more

10-Day Weather Forecast

Advertisements
Track Severe Weather on mobile